createdAt,value
2016-11-29T00:00:54.760Z,0
2016-11-29T00:01:55.065Z,0
2016-11-29T00:02:54.601Z,0
2016-11-29T00:03:55.208Z,0
2016-11-29T00:04:54.509Z,0
2016-11-29T00:05:54.882Z,0
2016-11-29T00:06:54.646Z,0
2016-11-29T00:07:54.652Z,0
2016-11-29T00:08:54.551Z,0
2016-11-29T00:09:54.512Z,0
2016-11-29T00:10:54.732Z,0
2016-11-29T00:11:54.764Z,0
2016-11-29T00:12:54.615Z,0
2016-11-29T00:13:54.590Z,0
2016-11-29T00:14:54.532Z,0
2016-11-29T00:15:55.370Z,0
2016-11-29T00:16:54.682Z,0
2016-11-29T00:17:54.574Z,0
2016-11-29T00:18:54.804Z,0
2016-11-29T00:19:54.910Z,0
2016-11-29T00:20:54.748Z,0
2016-11-29T00:21:54.537Z,0
2016-11-29T00:22:54.498Z,0
2016-11-29T00:23:54.606Z,0
2016-11-29T00:24:54.636Z,0
2016-11-29T00:25:54.534Z,0
2016-11-29T00:26:54.723Z,0
2016-11-29T00:27:54.649Z,0
2016-11-29T00:28:54.703Z,0
2016-11-29T00:29:54.647Z,0
2016-11-29T00:30:54.736Z,0
2016-11-29T00:31:54.662Z,0
2016-11-29T00:32:54.510Z,0
2016-11-29T00:33:54.515Z,0
2016-11-29T00:34:54.767Z,0
2016-11-29T00:35:54.816Z,0
2016-11-29T00:36:54.545Z,0
2016-11-29T00:37:54.560Z,0
2016-11-29T00:38:54.564Z,0
2016-11-29T00:39:54.542Z,0
2016-11-29T00:40:55.075Z,0
2016-11-29T00:41:54.557Z,0
2016-11-29T00:42:54.947Z,0
2016-11-29T00:43:54.583Z,0
2016-11-29T00:44:54.618Z,0
2016-11-29T00:45:54.697Z,0
2016-11-29T00:46:54.635Z,0
2016-11-29T00:47:54.521Z,0
2016-11-29T00:48:54.592Z,0
2016-11-29T00:49:54.553Z,0
2016-11-29T00:50:55.028Z,0
2016-11-29T00:51:54.759Z,0
2016-11-29T00:52:54.712Z,0
2016-11-29T00:53:54.671Z,0
2016-11-29T00:54:54.589Z,0
2016-11-29T00:55:54.946Z,0
2016-11-29T00:56:54.538Z,0
2016-11-29T00:57:55.149Z,0
2016-11-29T00:58:54.539Z,0
2016-11-29T00:59:54.805Z,0
2016-11-29T01:00:54.523Z,0
2016-11-29T01:01:54.562Z,0
2016-11-29T01:02:54.727Z,0
2016-11-29T01:03:54.599Z,0
2016-11-29T01:04:54.520Z,0
2016-11-29T01:05:54.605Z,0
2016-11-29T01:06:55.444Z,0
2016-11-29T01:07:54.567Z,0
2016-11-29T01:08:54.533Z,0
2016-11-29T01:09:54.529Z,0
2016-11-29T01:10:54.695Z,0
2016-11-29T01:11:54.821Z,0
2016-11-29T01:12:55.295Z,0
2016-11-29T01:13:55.332Z,0
2016-11-29T01:14:54.575Z,0
2016-11-29T01:15:54.969Z,0
2016-11-29T01:16:54.706Z,0
2016-11-29T01:17:55.533Z,0
2016-11-29T01:18:54.576Z,0
2016-11-29T01:19:54.578Z,0
2016-11-29T01:20:54.740Z,0
2016-11-29T01:21:54.929Z,0
2016-11-29T01:22:54.719Z,0
2016-11-29T01:23:54.543Z,0
2016-11-29T01:24:54.653Z,0
2016-11-29T01:25:54.853Z,0
2016-11-29T01:26:54.562Z,0
2016-11-29T01:27:54.690Z,0
2016-11-29T01:28:54.694Z,0
2016-11-29T01:29:54.610Z,0
2016-11-29T01:30:54.633Z,0
2016-11-29T01:31:54.559Z,0
2016-11-29T01:32:55.351Z,0
2016-11-29T01:33:54.647Z,0
2016-11-29T01:34:54.657Z,0
2016-11-29T01:35:54.758Z,0
2016-11-29T01:36:54.695Z,0
2016-11-29T01:37:54.643Z,0
2016-11-29T01:38:55.364Z,0
2016-11-29T01:39:54.558Z,0
2016-11-29T01:40:54.629Z,0
2016-11-29T01:41:54.575Z,0
2016-11-29T01:42:54.549Z,0
2016-11-29T01:43:54.719Z,0
2016-11-29T01:44:54.568Z,0
2016-11-29T01:45:54.808Z,0
2016-11-29T01:46:54.729Z,0
2016-11-29T01:47:55.231Z,0
2016-11-29T01:48:54.791Z,0
2016-11-29T01:49:54.615Z,0
2016-11-29T01:50:54.561Z,0
2016-11-29T01:51:54.766Z,0
2016-11-29T01:52:54.549Z,0
2016-11-29T01:53:54.803Z,0
2016-11-29T01:54:54.633Z,0
2016-11-29T01:55:54.610Z,0
2016-11-29T01:56:54.566Z,0
2016-11-29T01:57:54.572Z,0
2016-11-29T01:58:54.550Z,0
2016-11-29T01:59:54.554Z,0
2016-11-29T02:00:54.577Z,0
2016-11-29T02:01:54.615Z,0
2016-11-29T02:02:54.588Z,0
2016-11-29T02:03:54.566Z,0
2016-11-29T02:04:54.910Z,0
2016-11-29T02:05:55.061Z,0
2016-11-29T02:06:54.644Z,0
2016-11-29T02:07:54.728Z,0
2016-11-29T02:08:54.854Z,0
2016-11-29T02:09:54.543Z,0
2016-11-29T02:10:54.596Z,0
2016-11-29T02:11:54.594Z,0
2016-11-29T02:12:54.569Z,0
2016-11-29T02:13:54.566Z,0
2016-11-29T02:14:54.700Z,0
2016-11-29T02:15:54.729Z,0
2016-11-29T02:16:54.760Z,0
2016-11-29T02:17:54.734Z,0
2016-11-29T02:18:54.564Z,0
2016-11-29T02:19:54.889Z,0
2016-11-29T02:20:54.556Z,0
2016-11-29T02:21:55.481Z,0
2016-11-29T02:22:54.658Z,0
2016-11-29T02:23:54.572Z,0
2016-11-29T02:24:54.886Z,0
2016-11-29T02:25:54.628Z,0
2016-11-29T02:26:54.722Z,0
2016-11-29T02:27:54.683Z,0
2016-11-29T02:28:55.512Z,0
2016-11-29T02:29:54.653Z,0
2016-11-29T02:30:54.983Z,0
2016-11-29T02:31:54.637Z,0
2016-11-29T02:32:54.667Z,0
2016-11-29T02:33:54.587Z,0
2016-11-29T02:34:54.642Z,0
2016-11-29T02:35:54.674Z,0
2016-11-29T02:36:54.982Z,0
2016-11-29T02:37:54.819Z,0
2016-11-29T02:38:54.609Z,0
2016-11-29T02:39:55.403Z,0
2016-11-29T02:40:54.599Z,0
2016-11-29T02:41:54.585Z,0
2016-11-29T02:42:54.844Z,0
2016-11-29T02:43:54.742Z,0
2016-11-29T02:44:54.568Z,0
2016-11-29T02:45:54.770Z,0
2016-11-29T02:46:55.024Z,0
2016-11-29T02:47:55.385Z,0
2016-11-29T02:48:54.576Z,0
2016-11-29T02:49:54.575Z,0
2016-11-29T02:50:54.941Z,0
2016-11-29T02:51:54.918Z,0
2016-11-29T02:52:54.805Z,0
2016-11-29T02:53:54.608Z,0
2016-11-29T02:54:58.166Z,0
2016-11-29T02:55:54.784Z,0
2016-11-29T02:56:55.075Z,0
2016-11-29T02:57:54.792Z,0
2016-11-29T02:58:54.895Z,0
2016-11-29T02:59:54.632Z,0
2016-11-29T03:00:54.620Z,0
2016-11-29T03:01:54.620Z,0
2016-11-29T03:02:54.586Z,0
2016-11-29T03:03:54.772Z,0
2016-11-29T03:04:54.582Z,0
2016-11-29T03:05:55.364Z,0
2016-11-29T03:06:54.683Z,0
2016-11-29T03:07:55.325Z,0
2016-11-29T03:08:54.631Z,0
2016-11-29T03:09:54.967Z,0
2016-11-29T03:10:54.585Z,0
2016-11-29T03:11:54.815Z,0
2016-11-29T03:12:54.612Z,0
2016-11-29T03:13:54.579Z,0
2016-11-29T03:14:54.800Z,0
2016-11-29T03:15:54.605Z,0
2016-11-29T03:16:54.599Z,0
2016-11-29T03:17:54.592Z,0
2016-11-29T03:18:54.600Z,0
2016-11-29T03:19:54.584Z,0
2016-11-29T03:20:55.670Z,0
2016-11-29T03:21:54.718Z,0
2016-11-29T03:22:54.597Z,0
2016-11-29T03:23:54.763Z,0
2016-11-29T03:24:54.614Z,0
2016-11-29T03:25:54.605Z,0
2016-11-29T03:26:54.769Z,0
2016-11-29T03:27:54.600Z,0
2016-11-29T03:28:54.968Z,0
2016-11-29T03:29:54.581Z,0
2016-11-29T03:30:54.886Z,0
2016-11-29T03:31:54.773Z,0
2016-11-29T03:32:55.099Z,0
2016-11-29T03:33:54.622Z,0
2016-11-29T03:34:55.624Z,0
2016-11-29T03:35:54.708Z,0
2016-11-29T03:36:54.644Z,0
2016-11-29T03:37:54.786Z,0
2016-11-29T03:38:54.790Z,0
2016-11-29T03:39:54.807Z,0
2016-11-29T03:40:54.766Z,0
2016-11-29T03:41:54.604Z,0
2016-11-29T03:42:54.757Z,0
2016-11-29T03:43:54.598Z,0
2016-11-29T03:44:54.632Z,0
2016-11-29T03:45:55.168Z,0
2016-11-29T03:46:54.671Z,0
2016-11-29T03:47:54.832Z,0
2016-11-29T03:48:55.405Z,0
2016-11-29T03:49:54.708Z,0
2016-11-29T03:50:54.615Z,0
2016-11-29T03:51:54.694Z,0
2016-11-29T03:52:54.606Z,0
2016-11-29T03:53:54.810Z,0
2016-11-29T03:54:54.604Z,0
2016-11-29T03:55:55.153Z,0
2016-11-29T03:56:55.223Z,0
2016-11-29T03:57:54.622Z,0
2016-11-29T03:58:55.183Z,0
2016-11-29T03:59:54.635Z,0
2016-11-29T04:00:54.590Z,0
2016-11-29T04:01:54.936Z,0
2016-11-29T04:02:54.846Z,0
2016-11-29T04:03:54.627Z,0
2016-11-29T04:04:54.624Z,0
2016-11-29T04:05:54.697Z,0
2016-11-29T04:06:54.749Z,0
2016-11-29T04:07:54.613Z,0
2016-11-29T04:08:54.612Z,0
2016-11-29T04:09:54.648Z,0
2016-11-29T04:10:54.611Z,0
2016-11-29T04:11:55.847Z,0
2016-11-29T04:12:54.772Z,0
2016-11-29T04:13:54.624Z,0
2016-11-29T04:14:54.667Z,0
2016-11-29T04:15:54.619Z,0
2016-11-29T04:16:55.448Z,0
2016-11-29T04:17:54.659Z,0
2016-11-29T04:18:54.887Z,0
2016-11-29T04:19:54.655Z,0
2016-11-29T04:20:54.690Z,0
2016-11-29T04:21:54.633Z,0
2016-11-29T04:22:54.641Z,0
2016-11-29T04:23:54.649Z,0
2016-11-29T04:24:54.775Z,0
2016-11-29T04:25:54.782Z,0
2016-11-29T04:26:54.627Z,0
2016-11-29T04:27:54.859Z,0
2016-11-29T04:28:54.631Z,0
2016-11-29T04:29:54.664Z,0
2016-11-29T04:30:54.659Z,0
2016-11-29T04:31:55.016Z,0
2016-11-29T04:32:54.601Z,0
2016-11-29T04:33:54.608Z,0
2016-11-29T04:34:54.639Z,0
2016-11-29T04:35:54.603Z,0
2016-11-29T04:36:54.620Z,0
2016-11-29T04:37:54.613Z,0
2016-11-29T04:38:54.648Z,0
2016-11-29T04:39:54.590Z,0
2016-11-29T04:40:54.614Z,0
2016-11-29T04:41:54.618Z,0
2016-11-29T04:42:54.607Z,0
2016-11-29T04:43:54.621Z,0
2016-11-29T04:44:54.615Z,0
2016-11-29T04:45:54.636Z,0
2016-11-29T04:46:54.648Z,0
2016-11-29T04:47:54.633Z,0
2016-11-29T04:48:54.641Z,0
2016-11-29T04:49:54.621Z,0
2016-11-29T04:50:54.626Z,0
2016-11-29T04:51:54.690Z,0
2016-11-29T04:52:54.614Z,0
2016-11-29T04:53:54.617Z,0
2016-11-29T04:54:54.622Z,0
2016-11-29T04:55:54.635Z,0
2016-11-29T04:56:54.631Z,0
2016-11-29T04:57:54.625Z,0
2016-11-29T04:58:54.644Z,0
2016-11-29T04:59:54.621Z,0
2016-11-29T05:00:54.636Z,0
2016-11-29T05:01:54.650Z,0
2016-11-29T05:02:54.620Z,0
2016-11-29T05:03:54.664Z,0
2016-11-29T05:04:54.653Z,0
2016-11-29T05:05:54.639Z,0
2016-11-29T05:06:54.638Z,0
2016-11-29T05:07:54.658Z,0
2016-11-29T05:08:54.628Z,0
2016-11-29T05:09:54.629Z,0
2016-11-29T05:10:54.667Z,0
2016-11-29T05:11:54.655Z,0
2016-11-29T05:12:54.625Z,0
2016-11-29T05:13:54.647Z,0
2016-11-29T05:14:54.621Z,0
2016-11-29T05:15:54.666Z,0
2016-11-29T05:16:54.676Z,0
2016-11-29T05:17:54.625Z,0
2016-11-29T05:18:54.633Z,0
2016-11-29T05:19:54.676Z,0
2016-11-29T05:20:54.661Z,0
2016-11-29T05:21:54.814Z,0
2016-11-29T05:22:54.770Z,0
2016-11-29T05:23:54.657Z,0
2016-11-29T05:24:54.728Z,0
2016-11-29T05:25:54.734Z,0
2016-11-29T05:26:54.719Z,0
2016-11-29T05:27:55.251Z,0
2016-11-29T05:28:54.862Z,0
2016-11-29T05:29:55.277Z,0
2016-11-29T05:30:55.755Z,0
2016-11-29T05:31:54.894Z,0
2016-11-29T05:32:55.330Z,0
2016-11-29T05:33:54.679Z,0
2016-11-29T05:34:54.666Z,0
2016-11-29T05:35:54.706Z,0
2016-11-29T05:36:55.961Z,0
2016-11-29T05:37:54.799Z,0
2016-11-29T05:38:54.766Z,0
2016-11-29T05:39:54.970Z,0
2016-11-29T05:40:54.733Z,0
2016-11-29T05:41:54.684Z,0
2016-11-29T05:42:54.687Z,0
2016-11-29T05:43:54.664Z,0
2016-11-29T05:44:55.449Z,0
2016-11-29T05:45:54.901Z,0
2016-11-29T05:46:54.675Z,0
2016-11-29T05:47:54.705Z,0
2016-11-29T05:48:54.678Z,0
2016-11-29T05:49:54.652Z,0
2016-11-29T05:50:54.660Z,0
2016-11-29T05:51:54.887Z,0
2016-11-29T05:52:54.689Z,0
2016-11-29T05:53:55.284Z,0
2016-11-29T05:54:54.847Z,0
2016-11-29T05:55:54.747Z,0
2016-11-29T05:56:54.729Z,0
2016-11-29T05:57:54.875Z,0
2016-11-29T05:58:55.049Z,0
2016-11-29T05:59:54.903Z,0
2016-11-29T06:00:54.660Z,0
2016-11-29T06:01:54.974Z,0
2016-11-29T06:02:54.708Z,0
2016-11-29T06:03:54.677Z,0
2016-11-29T06:04:54.681Z,0
2016-11-29T06:05:54.712Z,0
2016-11-29T06:06:54.905Z,0
2016-11-29T06:07:54.923Z,0
2016-11-29T06:08:55.249Z,0
2016-11-29T06:09:54.712Z,0
2016-11-29T06:10:54.763Z,0
2016-11-29T06:11:54.951Z,0
2016-11-29T06:12:54.803Z,0
2016-11-29T06:13:54.947Z,0
2016-11-29T06:14:54.705Z,0
2016-11-29T06:15:54.721Z,0
2016-11-29T06:16:54.729Z,0
2016-11-29T06:17:54.704Z,0
2016-11-29T06:18:54.693Z,0
2016-11-29T06:19:54.725Z,0
2016-11-29T06:20:54.668Z,0
2016-11-29T06:21:54.703Z,0
2016-11-29T06:22:54.813Z,0
2016-11-29T06:23:54.716Z,0
2016-11-29T06:24:54.724Z,0
2016-11-29T06:25:54.712Z,0
2016-11-29T06:26:54.696Z,0
2016-11-29T06:27:55.819Z,0
2016-11-29T06:28:54.992Z,0
2016-11-29T06:29:54.766Z,0
2016-11-29T06:30:54.739Z,0
2016-11-29T06:31:54.846Z,0
2016-11-29T06:32:55.204Z,0
2016-11-29T06:33:54.819Z,0
2016-11-29T06:34:54.840Z,0
2016-11-29T06:35:54.783Z,0
2016-11-29T06:36:55.135Z,0
2016-11-29T06:37:55.118Z,0
2016-11-29T06:38:54.987Z,0
2016-11-29T06:39:54.864Z,0
2016-11-29T06:40:54.810Z,0
2016-11-29T06:41:55.481Z,0
2016-11-29T06:42:54.761Z,0
2016-11-29T06:43:54.725Z,0
2016-11-29T06:44:54.721Z,0
2016-11-29T06:45:55.122Z,0
2016-11-29T06:46:54.924Z,0
2016-11-29T06:47:54.750Z,0
2016-11-29T06:48:54.976Z,0
2016-11-29T06:49:54.707Z,0
2016-11-29T06:50:54.727Z,0
2016-11-29T06:51:54.918Z,0
2016-11-29T06:52:54.940Z,0
2016-11-29T06:53:54.963Z,0
2016-11-29T06:54:54.779Z,0
2016-11-29T06:55:55.132Z,0
2016-11-29T06:56:54.784Z,0
2016-11-29T06:57:54.916Z,0
2016-11-29T06:58:54.729Z,0
2016-11-29T06:59:55.503Z,0
2016-11-29T07:00:55.542Z,0
2016-11-29T07:01:54.993Z,0
2016-11-29T07:02:55.501Z,0
2016-11-29T07:03:54.773Z,0
2016-11-29T07:04:55.140Z,0
2016-11-29T07:05:54.940Z,0
2016-11-29T07:06:55.021Z,0
2016-11-29T07:07:54.839Z,0
2016-11-29T07:08:54.720Z,5
2016-11-29T07:09:54.726Z,5
2016-11-29T07:10:54.753Z,5
2016-11-29T07:11:54.862Z,5
2016-11-29T07:12:54.948Z,5
2016-11-29T07:13:54.855Z,5
2016-11-29T07:14:54.770Z,5
2016-11-29T07:15:54.757Z,5
2016-11-29T07:16:54.877Z,5
2016-11-29T07:17:55.130Z,5
2016-11-29T07:18:54.828Z,10
2016-11-29T07:19:54.815Z,10
2016-11-29T07:20:54.708Z,10
2016-11-29T07:21:54.735Z,10
2016-11-29T07:22:54.751Z,10
2016-11-29T07:23:57.738Z,10
2016-11-29T07:24:54.720Z,10
2016-11-29T07:25:54.735Z,10
2016-11-29T07:26:54.826Z,15
2016-11-29T07:27:54.697Z,15
2016-11-29T07:28:54.716Z,15
2016-11-29T07:29:54.729Z,15
2016-11-29T07:30:54.831Z,15
2016-11-29T07:31:54.736Z,15
2016-11-29T07:32:54.759Z,15
2016-11-29T07:33:54.799Z,20
2016-11-29T07:34:54.727Z,20
2016-11-29T07:35:54.713Z,20
2016-11-29T07:36:54.735Z,20
2016-11-29T07:38:05.977Z,20
2016-11-29T07:38:54.716Z,20
2016-11-29T07:39:54.769Z,20
2016-11-29T07:40:54.771Z,25
2016-11-29T07:41:54.751Z,25
2016-11-29T07:42:54.768Z,25
2016-11-29T07:43:54.744Z,25
2016-11-29T07:44:54.768Z,25
2016-11-29T07:45:54.750Z,25
2016-11-29T07:46:54.751Z,25
2016-11-29T07:47:54.735Z,25
2016-11-29T07:48:54.723Z,30
2016-11-29T07:49:54.771Z,30
2016-11-29T07:50:54.765Z,30
2016-11-29T07:51:54.733Z,30
2016-11-29T07:52:54.752Z,30
2016-11-29T07:53:54.746Z,30
2016-11-29T07:54:54.729Z,30
2016-11-29T07:55:54.764Z,35
2016-11-29T07:56:54.738Z,35
2016-11-29T07:57:54.715Z,35
2016-11-29T07:58:54.733Z,35
2016-11-29T07:59:54.903Z,35
2016-11-29T08:00:54.758Z,35
2016-11-29T08:01:54.742Z,35
2016-11-29T08:02:54.708Z,40
2016-11-29T08:03:54.755Z,40
2016-11-29T08:04:54.722Z,40
2016-11-29T08:05:54.727Z,40
2016-11-29T08:06:54.774Z,40
2016-11-29T08:07:54.743Z,40
2016-11-29T08:08:54.891Z,40
2016-11-29T08:09:54.789Z,40
2016-11-29T08:10:54.735Z,45
2016-11-29T08:11:54.772Z,45
2016-11-29T08:12:54.740Z,45
2016-11-29T08:13:54.751Z,45
2016-11-29T08:14:54.814Z,45
2016-11-29T08:15:54.741Z,45
2016-11-29T08:16:54.799Z,45
2016-11-29T08:17:54.767Z,45
2016-11-29T08:18:54.779Z,45
2016-11-29T08:19:54.753Z,45
2016-11-29T08:20:54.751Z,50
2016-11-29T08:21:54.786Z,50
2016-11-29T08:22:54.719Z,50
2016-11-29T08:23:54.767Z,50
2016-11-29T08:24:54.733Z,50
2016-11-29T08:25:54.773Z,50
2016-11-29T08:26:54.775Z,50
2016-11-29T08:27:54.763Z,50
2016-11-29T08:28:54.763Z,50
2016-11-29T08:29:54.722Z,50
2016-11-29T08:30:54.726Z,50
2016-11-29T08:31:54.755Z,55
2016-11-29T08:32:54.763Z,55
2016-11-29T08:33:54.742Z,55
2016-11-29T08:34:54.782Z,55
2016-11-29T08:35:54.741Z,55
2016-11-29T08:36:54.829Z,55
2016-11-29T08:37:54.740Z,55
2016-11-29T08:38:54.774Z,55
2016-11-29T08:39:54.803Z,55
2016-11-29T08:40:54.790Z,55
2016-11-29T08:41:54.816Z,55
2016-11-29T08:42:54.811Z,55
2016-11-29T08:43:54.796Z,55
2016-11-29T08:44:54.787Z,60
2016-11-29T08:45:54.772Z,60
2016-11-29T08:46:54.822Z,60
2016-11-29T08:47:54.772Z,60
2016-11-29T08:48:54.775Z,60
2016-11-29T08:49:54.838Z,60
2016-11-29T08:50:54.860Z,60
2016-11-29T08:52:10.113Z,60
2016-11-29T08:53:14.612Z,60
2016-11-29T08:54:12.376Z,60
2016-11-29T08:54:56.995Z,60
2016-11-29T08:55:54.791Z,60
2016-11-29T08:56:54.820Z,60
2016-11-29T08:57:54.782Z,60
2016-11-29T08:58:54.790Z,60
2016-11-29T08:59:54.790Z,60
2016-11-29T09:00:54.782Z,65
2016-11-29T09:01:54.800Z,65
2016-11-29T09:02:54.782Z,65
2016-11-29T09:03:54.854Z,65
2016-11-29T09:04:54.794Z,65
2016-11-29T09:05:54.831Z,65
2016-11-29T09:06:54.788Z,65
2016-11-29T09:07:54.780Z,65
2016-11-29T09:08:54.775Z,65
2016-11-29T09:09:54.819Z,65
2016-11-29T09:10:54.826Z,65
2016-11-29T09:11:54.836Z,65
2016-11-29T09:12:54.804Z,65
2016-11-29T09:13:54.875Z,65
2016-11-29T09:14:54.786Z,65
2016-11-29T09:15:54.866Z,65
2016-11-29T09:16:55.067Z,65
2016-11-29T09:17:54.841Z,65
2016-11-29T09:18:54.818Z,65
2016-11-29T09:19:54.794Z,65
2016-11-29T09:20:54.817Z,70
2016-11-29T09:21:54.809Z,70
2016-11-29T09:22:54.809Z,70
2016-11-29T09:23:54.853Z,70
2016-11-29T09:24:55.123Z,70
2016-11-29T09:25:54.850Z,70
2016-11-29T09:26:54.841Z,70
2016-11-29T09:27:54.908Z,70
2016-11-29T09:28:54.783Z,70
2016-11-29T09:29:54.791Z,70
2016-11-29T09:30:54.794Z,70
2016-11-29T09:31:54.826Z,70
2016-11-29T09:32:54.883Z,70
2016-11-29T09:33:54.784Z,70
2016-11-29T09:34:54.813Z,70
2016-11-29T09:35:54.845Z,70
2016-11-29T09:36:54.859Z,70
2016-11-29T09:37:54.819Z,70
2016-11-29T09:38:54.810Z,70
2016-11-29T09:39:54.774Z,70
2016-11-29T09:40:54.775Z,70
2016-11-29T09:41:54.844Z,70
2016-11-29T09:42:54.809Z,70
2016-11-29T09:43:54.771Z,70
2016-11-29T09:44:54.793Z,75
2016-11-29T09:45:54.816Z,75
2016-11-29T09:46:54.872Z,75
2016-11-29T09:47:54.798Z,75
2016-11-29T09:48:54.796Z,75
2016-11-29T09:49:54.789Z,75
2016-11-29T09:50:54.797Z,75
2016-11-29T09:51:54.818Z,75
2016-11-29T09:52:54.843Z,75
2016-11-29T09:53:54.805Z,75
2016-11-29T09:54:54.837Z,75
2016-11-29T09:55:54.830Z,75
2016-11-29T09:56:54.857Z,75
2016-11-29T09:57:54.816Z,75
2016-11-29T09:58:54.822Z,75
2016-11-29T09:59:54.872Z,75
2016-11-29T10:00:55.376Z,75
2016-11-29T10:01:54.898Z,75
2016-11-29T10:02:54.789Z,75
2016-11-29T10:03:54.811Z,75
2016-11-29T10:04:54.806Z,75
2016-11-29T10:05:54.819Z,75
2016-11-29T10:06:54.803Z,75
2016-11-29T10:07:54.790Z,75
2016-11-29T10:08:54.818Z,75
2016-11-29T10:09:54.840Z,75
2016-11-29T10:10:54.829Z,75
2016-11-29T10:11:54.845Z,80
2016-11-29T10:12:54.791Z,75
2016-11-29T10:13:54.838Z,80
2016-11-29T10:14:54.822Z,80
2016-11-29T10:15:54.813Z,80
2016-11-29T10:16:54.846Z,80
2016-11-29T10:17:54.819Z,80
2016-11-29T10:18:54.786Z,80
2016-11-29T10:19:54.848Z,80
2016-11-29T10:20:55.525Z,80
2016-11-29T10:21:54.853Z,80
2016-11-29T10:22:54.851Z,80
2016-11-29T10:23:54.827Z,80
2016-11-29T10:24:54.936Z,80
2016-11-29T10:25:54.858Z,80
2016-11-29T10:26:54.849Z,80
2016-11-29T10:27:54.843Z,80
2016-11-29T10:28:54.895Z,80
2016-11-29T10:29:54.887Z,80
2016-11-29T10:30:54.828Z,80
2016-11-29T10:31:54.856Z,80
2016-11-29T10:32:54.947Z,80
2016-11-29T10:33:54.895Z,80
2016-11-29T10:34:54.855Z,80
2016-11-29T10:35:54.876Z,80
2016-11-29T10:36:54.865Z,80
2016-11-29T10:37:54.858Z,80
2016-11-29T10:38:54.839Z,80
2016-11-29T10:39:54.829Z,80
2016-11-29T10:40:54.898Z,80
2016-11-29T10:41:54.863Z,80
2016-11-29T10:42:54.852Z,80
2016-11-29T10:43:54.846Z,80
2016-11-29T10:44:54.831Z,80
2016-11-29T10:45:54.823Z,80
2016-11-29T10:46:54.852Z,80
2016-11-29T10:47:54.852Z,80
2016-11-29T10:48:54.885Z,80
2016-11-29T10:49:54.862Z,80
2016-11-29T10:50:54.861Z,80
2016-11-29T10:51:54.864Z,80
2016-11-29T10:52:54.871Z,80
2016-11-29T10:53:54.843Z,80
2016-11-29T10:54:54.881Z,80
2016-11-29T10:55:54.847Z,80
2016-11-29T10:56:54.872Z,80
2016-11-29T10:57:54.855Z,80
2016-11-29T10:58:54.868Z,80
2016-11-29T10:59:54.862Z,80
2016-11-29T11:00:54.904Z,80
2016-11-29T11:01:54.921Z,80
2016-11-29T11:02:54.872Z,80
2016-11-29T11:03:54.937Z,80
2016-11-29T11:04:54.913Z,80
2016-11-29T11:05:54.886Z,80
2016-11-29T11:06:54.924Z,80
2016-11-29T11:07:54.967Z,80
2016-11-29T11:08:54.884Z,80
2016-11-29T11:09:54.871Z,80
2016-11-29T11:10:54.907Z,80
2016-11-29T11:11:54.939Z,80
2016-11-29T11:12:54.953Z,80
2016-11-29T11:13:54.990Z,80
2016-11-29T11:14:54.907Z,80
2016-11-29T11:15:54.939Z,80
2016-11-29T11:16:54.974Z,80
2016-11-29T11:17:54.902Z,80
2016-11-29T11:18:54.878Z,80
2016-11-29T11:19:56.612Z,80
2016-11-29T11:20:54.898Z,80
2016-11-29T11:21:54.921Z,80
2016-11-29T11:22:54.947Z,80
2016-11-29T11:23:54.913Z,80
2016-11-29T11:24:54.895Z,80
2016-11-29T11:25:54.902Z,80
2016-11-29T11:26:54.928Z,80
2016-11-29T11:27:54.983Z,80
2016-11-29T11:28:54.913Z,80
2016-11-29T11:29:54.912Z,80
2016-11-29T11:30:54.937Z,80
2016-11-29T11:31:54.950Z,80
2016-11-29T11:32:54.985Z,80
2016-11-29T11:33:54.942Z,80
2016-11-29T11:34:54.901Z,80
2016-11-29T11:35:54.919Z,80
2016-11-29T11:36:54.938Z,80
2016-11-29T11:37:54.895Z,80
2016-11-29T11:38:54.923Z,80
2016-11-29T11:39:54.925Z,80
2016-11-29T11:40:54.936Z,80
2016-11-29T11:41:54.939Z,80
2016-11-29T11:42:54.983Z,80
2016-11-29T11:43:54.887Z,80
2016-11-29T11:44:54.893Z,80
2016-11-29T11:45:54.929Z,80
2016-11-29T11:46:54.897Z,80
2016-11-29T11:47:54.877Z,80
2016-11-29T11:48:54.889Z,80
2016-11-29T11:49:54.899Z,80
2016-11-29T11:50:55.015Z,80
2016-11-29T11:51:55.007Z,80
2016-11-29T11:52:55.036Z,80
2016-11-29T11:53:55.249Z,80
2016-11-29T11:54:54.932Z,80
2016-11-29T11:55:54.994Z,80
2016-11-29T11:56:54.973Z,80
2016-11-29T11:57:54.912Z,80
2016-11-29T11:58:54.915Z,80
2016-11-29T11:59:54.903Z,80
2016-11-29T12:00:54.929Z,80
2016-11-29T12:01:54.978Z,80
2016-11-29T12:02:54.941Z,80
2016-11-29T12:03:54.969Z,80
2016-11-29T12:04:54.977Z,80
2016-11-29T12:05:54.980Z,80
2016-11-29T12:06:54.960Z,80
2016-11-29T12:07:54.991Z,80
2016-11-29T12:08:54.943Z,80
2016-11-29T12:09:54.979Z,80
2016-11-29T12:10:54.996Z,80
2016-11-29T12:11:54.940Z,80
2016-11-29T12:12:54.962Z,80
2016-11-29T12:13:54.984Z,80
2016-11-29T12:14:54.979Z,80
2016-11-29T12:15:54.975Z,80
2016-11-29T12:16:55.635Z,80
2016-11-29T12:17:54.998Z,80
2016-11-29T12:18:54.955Z,80
2016-11-29T12:19:54.967Z,80
2016-11-29T12:20:54.985Z,80
2016-11-29T12:21:54.979Z,80
2016-11-29T12:22:55.002Z,80
2016-11-29T12:23:54.918Z,80
2016-11-29T12:24:54.954Z,80
2016-11-29T12:25:54.960Z,80
2016-11-29T12:26:54.954Z,80
2016-11-29T12:27:55.007Z,80
2016-11-29T12:28:54.949Z,80
2016-11-29T12:29:54.959Z,80
2016-11-29T12:30:54.953Z,80
2016-11-29T12:31:55.630Z,80
2016-11-29T12:32:54.921Z,80
2016-11-29T12:33:54.946Z,80
2016-11-29T12:34:54.997Z,80
2016-11-29T12:35:54.975Z,80
2016-11-29T12:36:55.061Z,80
2016-11-29T12:37:54.981Z,80
2016-11-29T12:38:55.013Z,80
2016-11-29T12:39:54.963Z,80
2016-11-29T12:40:54.950Z,80
2016-11-29T12:41:54.956Z,80
2016-11-29T12:42:54.945Z,80
2016-11-29T12:43:54.945Z,80
2016-11-29T12:44:55.008Z,80
2016-11-29T12:45:54.949Z,80
2016-11-29T12:46:54.947Z,75
2016-11-29T12:47:54.913Z,75
2016-11-29T12:48:54.971Z,75
2016-11-29T12:49:55.021Z,75
2016-11-29T12:50:59.655Z,75
2016-11-29T12:52:00.224Z,75
2016-11-29T12:52:58.775Z,75
2016-11-29T12:54:00.278Z,75
2016-11-29T12:54:59.171Z,75
2016-11-29T12:55:59.161Z,75
2016-11-29T12:56:58.575Z,75
2016-11-29T12:57:59.849Z,75
2016-11-29T12:58:59.195Z,75
2016-11-29T13:00:01.576Z,75
2016-11-29T13:01:00.757Z,75
2016-11-29T13:01:58.707Z,75
2016-11-29T13:02:59.611Z,75
2016-11-29T13:03:56.857Z,75
2016-11-29T13:04:57.781Z,75
2016-11-29T13:05:59.686Z,75
2016-11-29T13:06:57.924Z,75
2016-11-29T13:07:58.980Z,75
2016-11-29T13:08:58.643Z,75
2016-11-29T13:09:56.470Z,75
2016-11-29T13:10:55.660Z,75
2016-11-29T13:12:00.140Z,75
2016-11-29T13:12:57.155Z,75
2016-11-29T13:13:58.328Z,75
2016-11-29T13:14:56.979Z,75
2016-11-29T13:15:56.681Z,75
2016-11-29T13:16:57.987Z,75
2016-11-29T13:17:56.343Z,70
2016-11-29T13:18:57.869Z,70
2016-11-29T13:20:01.294Z,70
2016-11-29T13:20:59.216Z,70
2016-11-29T13:22:01.502Z,70
2016-11-29T13:22:59.735Z,70
2016-11-29T13:24:00.719Z,70
2016-11-29T13:25:01.615Z,70
2016-11-29T13:25:58.590Z,70
2016-11-29T13:26:59.672Z,70
2016-11-29T13:28:00.307Z,70
2016-11-29T13:28:59.031Z,70
2016-11-29T13:29:57.777Z,70
2016-11-29T13:31:05.206Z,70
2016-11-29T13:32:03.631Z,70
2016-11-29T13:33:04.745Z,70
2016-11-29T13:34:01.406Z,70
2016-11-29T13:35:05.740Z,70
2016-11-29T13:36:02.577Z,70
2016-11-29T13:37:02.924Z,70
2016-11-29T13:38:01.056Z,70
2016-11-29T13:39:05.230Z,70
2016-11-29T13:40:02.042Z,65
2016-11-29T13:41:01.612Z,70
2016-11-29T13:42:05.441Z,65
2016-11-29T13:43:03.098Z,65
2016-11-29T13:44:07.569Z,65
2016-11-29T13:45:04.715Z,65
2016-11-29T13:46:02.730Z,65
2016-11-29T13:47:03.782Z,65
2016-11-29T13:48:04.185Z,65
2016-11-29T13:49:02.692Z,65
2016-11-29T13:49:59.566Z,65
2016-11-29T13:51:03.313Z,65
2016-11-29T13:52:04.819Z,65
2016-11-29T13:53:02.342Z,65
2016-11-29T13:54:03.446Z,65
2016-11-29T13:55:01.290Z,65
2016-11-29T13:56:00.357Z,65
2016-11-29T13:56:55.047Z,65
2016-11-29T13:57:55.420Z,60
2016-11-29T13:58:55.815Z,60
2016-11-29T13:59:55.351Z,60
2016-11-29T14:00:55.201Z,60
2016-11-29T14:01:55.008Z,60
2016-11-29T14:02:55.253Z,60
2016-11-29T14:03:55.260Z,60
2016-11-29T14:04:54.988Z,60
2016-11-29T14:05:55.104Z,60
2016-11-29T14:06:55.759Z,60
2016-11-29T14:07:55.271Z,60
2016-11-29T14:08:55.212Z,60
2016-11-29T14:09:55.317Z,55
2016-11-29T14:10:55.394Z,55
2016-11-29T14:11:56.452Z,55
2016-11-29T14:12:55.627Z,55
2016-11-29T14:13:55.474Z,55
2016-11-29T14:14:55.937Z,55
2016-11-29T14:15:55.057Z,55
2016-11-29T14:16:55.235Z,55
2016-11-29T14:17:55.173Z,55
2016-11-29T14:18:55.218Z,55
2016-11-29T14:19:55.068Z,50
2016-11-29T14:20:55.125Z,50
2016-11-29T14:21:55.331Z,50
2016-11-29T14:22:55.385Z,50
2016-11-29T14:23:55.367Z,50
2016-11-29T14:24:55.154Z,50
2016-11-29T14:25:55.121Z,50
2016-11-29T14:26:55.141Z,50
2016-11-29T14:27:55.245Z,50
2016-11-29T14:28:55.054Z,45
2016-11-29T14:29:55.296Z,45
2016-11-29T14:30:55.056Z,45
2016-11-29T14:31:55.104Z,45